createdAt,value
2018-12-02T06:05:39.742Z,64.12
2018-12-02T06:10:43.840Z,63.78
2018-12-02T06:15:47.217Z,63.50
2018-12-02T06:20:51.310Z,64.11
2018-12-02T06:25:55.416Z,64.01
2018-12-02T06:30:58.761Z,63.78
2018-12-02T06:36:02.856Z,63.54
2018-12-02T06:41:06.201Z,63.06
2018-12-02T06:46:10.294Z,63.07
2018-12-02T06:51:13.639Z,62.63
2018-12-02T06:56:20.057Z,62.31
2018-12-02T07:01:24.056Z,62.19
2018-12-02T07:06:27.392Z,62.18
2018-12-02T07:11:38.624Z,62.28
2018-12-02T07:16:41.952Z,62.41
2018-12-02T07:21:46.439Z,62.79
2018-12-02T07:26:53.001Z,62.53
2018-12-02T07:31:56.347Z,62.76
2018-12-02T07:36:59.673Z,63.07
2018-12-02T07:42:03.013Z,63.17
2018-12-02T07:47:07.106Z,63.15
2018-12-02T07:52:10.445Z,63.02
2018-12-02T07:57:13.788Z,62.89
2018-12-02T08:02:18.214Z,62.88
2018-12-02T08:07:20.593Z,62.63
2018-12-02T08:12:24.692Z,62.44
2018-12-02T08:17:28.048Z,63.15
2018-12-02T08:22:35.008Z,62.06
2018-12-02T08:27:39.176Z,63.00
2018-12-02T08:32:42.514Z,62.91
2018-12-02T08:37:45.851Z,63.11
2018-12-02T08:42:49.451Z,63.22
2018-12-02T08:47:53.047Z,63.95
2018-12-02T08:52:56.642Z,64.25
2018-12-02T08:58:03.129Z,64.57
2018-12-02T09:03:07.479Z,64.09
2018-12-02T09:08:17.501Z,63.85
2018-12-02T09:13:25.768Z,64.20
2018-12-02T09:18:32.550Z,64.95
2018-12-02T09:23:38.355Z,65.15
2018-12-02T09:28:43.634Z,66.00
2018-12-02T09:33:49.457Z,65.59
2018-12-02T09:38:53.059Z,65.40
2018-12-02T09:43:56.675Z,65.93
2018-12-02T09:49:00.315Z,65.65
2018-12-02T09:54:04.063Z,66.89
2018-12-02T09:59:07.850Z,65.94
2018-12-02T10:04:11.671Z,66.71
2018-12-02T10:09:15.878Z,65.76
2018-12-02T10:14:20.113Z,66.40
2018-12-02T10:19:23.883Z,66.43
2018-12-02T10:24:27.996Z,67.13
2018-12-02T10:29:32.802Z,66.34
2018-12-02T10:34:36.688Z,66.26
2018-12-02T10:39:40.396Z,65.85
2018-12-02T10:44:44.072Z,66.29
2018-12-02T10:49:47.922Z,66.26
2018-12-02T10:54:51.638Z,66.34
2018-12-02T11:00:16.922Z,67.82
2018-12-02T11:05:21.855Z,67.27
2018-12-02T11:10:26.144Z,67.25
2018-12-02T11:15:29.773Z,67.83
2018-12-02T11:20:33.371Z,67.72
2018-12-02T11:25:36.726Z,68.20
2018-12-02T11:30:40.814Z,69.27
2018-12-02T11:35:44.361Z,69.17
2018-12-02T11:40:47.950Z,68.83
2018-12-02T11:45:51.582Z,69.69
2018-12-02T11:50:55.065Z,69.56
2018-12-02T11:55:59.180Z,70.13
2018-12-02T12:01:10.453Z,70.08
2018-12-02T12:06:13.901Z,69.51
2018-12-02T12:11:18.133Z,69.60
2018-12-02T12:16:22.496Z,70.49
2018-12-02T12:21:26.071Z,71.68
2018-12-02T12:26:29.565Z,73.10
2018-12-02T12:31:32.946Z,73.61
2018-12-02T12:36:43.768Z,73.82
2018-12-02T12:41:50.065Z,72.33
2018-12-02T12:46:53.464Z,71.87
2018-12-02T12:51:56.812Z,72.40
2018-12-02T12:57:00.161Z,71.81
2018-12-02T13:02:03.550Z,71.74
2018-12-02T13:07:06.907Z,72.69
2018-12-02T13:12:10.539Z,72.24
2018-12-02T13:17:13.913Z,71.20
2018-12-02T13:22:17.280Z,71.59
2018-12-02T13:27:22.401Z,72.92
2018-12-02T13:32:30.533Z,72.24
2018-12-02T13:37:36.899Z,73.10
2018-12-02T13:42:41.040Z,71.48
2018-12-02T13:47:44.396Z,71.18
2018-12-02T13:52:47.738Z,70.95
2018-12-02T13:57:51.090Z,70.01
2018-12-02T14:02:54.423Z,70.31
2018-12-02T14:08:01.618Z,70.33
2018-12-02T14:13:04.970Z,68.74
2018-12-02T14:18:08.877Z,69.21
2018-12-02T14:23:12.240Z,68.80
2018-12-02T14:28:15.597Z,68.91
2018-12-02T14:33:19.185Z,68.70
2018-12-02T14:38:23.304Z,67.87
2018-12-02T14:43:27.403Z,68.31
2018-12-02T14:48:30.745Z,69.54
2018-12-02T14:53:34.872Z,69.00
2018-12-02T14:58:38.268Z,68.80
2018-12-02T15:03:41.646Z,68.35
2018-12-02T15:08:45.000Z,68.15
2018-12-02T15:13:48.373Z,67.33
2018-12-02T15:18:51.736Z,67.55
2018-12-02T15:23:55.124Z,67.38
2018-12-02T15:28:58.479Z,67.48
2018-12-02T15:34:01.833Z,66.47
2018-12-02T15:39:05.217Z,67.00
2018-12-02T15:44:08.573Z,67.35
2018-12-02T15:49:11.928Z,67.02
2018-12-02T15:54:19.170Z,68.13
2018-12-02T15:59:25.922Z,68.38
2018-12-02T16:04:31.080Z,69.86
2018-12-02T16:09:40.398Z,69.93
2018-12-02T16:14:44.699Z,69.18
2018-12-02T16:19:48.061Z,68.72
2018-12-02T16:24:51.413Z,68.72
2018-12-02T16:29:54.773Z,68.49
2018-12-02T16:34:58.924Z,68.01
2018-12-02T16:40:02.398Z,67.71
2018-12-02T16:45:06.588Z,67.92
2018-12-02T16:50:10.013Z,67.29
2018-12-02T16:55:13.377Z,67.53
2018-12-02T17:00:16.722Z,67.94
2018-12-02T17:05:20.078Z,67.45
2018-12-02T17:10:23.419Z,67.08
2018-12-02T17:15:26.794Z,68.01
2018-12-02T17:20:30.198Z,67.67
2018-12-02T17:25:33.556Z,67.07
2018-12-02T17:30:36.905Z,66.89
2018-12-02T17:35:40.261Z,67.55
2018-12-02T17:40:44.384Z,67.96
2018-12-02T17:45:47.724Z,67.98
2018-12-02T17:50:51.110Z,69.46
2018-12-02T17:55:55.218Z,69.98
2018-12-02T18:00:58.579Z,69.75
2018-12-02T18:06:02.033Z,70.04
2018-12-02T18:11:05.413Z,69.66
2018-12-02T18:16:08.780Z,69.15
2018-12-02T18:21:12.158Z,69.11
2018-12-02T18:26:15.499Z,68.67
2018-12-02T18:31:19.625Z,68.93
2018-12-02T18:36:23.009Z,68.81
2018-12-02T18:41:26.973Z,68.17
2018-12-02T18:46:31.144Z,68.41
2018-12-02T18:51:38.943Z,68.57
2018-12-02T18:56:42.298Z,68.70
2018-12-02T19:01:45.993Z,68.76
2018-12-02T19:06:49.383Z,68.83
2018-12-02T19:11:53.504Z,67.90
2018-12-02T19:17:01.921Z,67.66
2018-12-02T19:22:09.313Z,67.21
2018-12-02T19:27:12.673Z,67.37
2018-12-02T19:32:16.018Z,67.53
2018-12-02T19:37:19.349Z,67.53
2018-12-02T19:42:22.743Z,67.46
2018-12-02T19:47:26.927Z,67.17
2018-12-02T19:52:30.524Z,67.18
2018-12-02T19:57:34.651Z,66.90
2018-12-02T20:02:38.006Z,66.89
2018-12-02T20:07:41.403Z,66.58
2018-12-02T20:12:44.807Z,67.09
2018-12-02T20:17:48.924Z,66.63
2018-12-02T20:23:05.027Z,66.27
2018-12-02T20:28:22.959Z,66.52
2018-12-02T20:33:28.251Z,66.38
2018-12-02T20:38:32.657Z,66.95
2018-12-02T20:43:36.018Z,66.92
2018-12-02T20:48:39.370Z,66.51
2018-12-02T20:53:43.286Z,66.78
2018-12-02T20:59:01.509Z,67.33
2018-12-02T21:04:04.876Z,67.07
2018-12-02T21:09:08.297Z,67.06
2018-12-02T21:14:11.647Z,67.58
2018-12-02T21:19:15.049Z,67.30
2018-12-02T21:24:18.421Z,67.77
2018-12-02T21:29:21.773Z,68.35
2018-12-02T21:34:28.849Z,68.76
2018-12-02T21:39:32.995Z,67.93
2018-12-02T21:44:37.107Z,68.55
2018-12-02T21:49:40.460Z,68.75
2018-12-02T21:54:44.005Z,69.20
2018-12-02T21:59:47.348Z,69.35
2018-12-02T22:04:53.417Z,68.58
2018-12-02T22:09:56.785Z,69.55
2018-12-02T22:15:13.372Z,70.19
2018-12-02T22:20:17.493Z,71.61
2018-12-02T22:25:20.860Z,70.25
2018-12-02T22:30:24.269Z,71.58
2018-12-02T22:35:29.547Z,72.86
2018-12-02T22:40:32.916Z,72.98
2018-12-02T22:45:36.259Z,73.03
2018-12-02T22:50:39.601Z,75.07
2018-12-02T22:55:44.002Z,74.41
